Time;durP1;ratioP1;P1;durP2;ratioP2;P2;SDS_P1;SDS_P2;PMS_P1;PMS_P2;Temp;Humidity;BMP_temperature;BMP_pressure;BME280_temperature;BME280_humidity;BME280_pressure;Samples;Min_cycle;Max_cycle;Signal;HPM_P1;HPM_P2
2023/04/12 00:02:03;;;;;;;5.15;2.03;;;;;;;;;;6145706;23;20017;-80
2023/04/12 00:04:28;;;;;;;3.28;1.60;;;;;;;;;;6146685;23;20123;-80
2023/04/12 00:06:54;;;;;;;3.10;1.30;;;;;;;;;;6145449;23;20029;-80
2023/04/12 00:09:21;;;;;;;4.60;1.60;;;;;;;;;;6121083;23;20018;-80
2023/04/12 00:11:46;;;;;;;6.30;1.88;;;;;;;;;;6120071;23;20464;-80
2023/04/12 00:14:12;;;;;;;4.32;1.60;;;;;;;;;;6146677;23;20028;-80
2023/04/12 00:16:37;;;;;;;3.40;1.70;;;;;;;;;;6145874;23;20021;-80
2023/04/12 00:19:03;;;;;;;3.33;1.30;;;;;;;;;;6120093;23;20096;-80
2023/04/12 00:21:29;;;;;;;5.60;1.83;;;;;;;;;;6119012;23;20024;-80
2023/04/12 00:23:55;;;;;;;4.43;1.70;;;;;;;;;;6120835;23;20017;-80
2023/04/12 00:26:21;;;;;;;5.63;2.00;;;;;;;;;;6096708;23;20044;-80
2023/04/12 00:28:47;;;;;;;7.35;1.90;;;;;;;;;;6119738;23;20156;-80
2023/04/12 00:31:12;;;;;;;4.95;1.90;;;;;;;;;;6145917;23;20022;-80
2023/04/12 00:33:37;;;;;;;3.03;1.58;;;;;;;;;;6145972;23;20494;-79
2023/04/12 00:36:03;;;;;;;3.22;1.33;;;;;;;;;;6095277;23;20017;-80
2023/04/12 00:38:28;;;;;;;3.03;1.40;;;;;;;;;;6119998;23;20017;-80
2023/04/12 00:40:54;;;;;;;3.50;1.73;;;;;;;;;;6119374;23;20403;-80
2023/04/12 00:43:20;;;;;;;4.03;1.60;;;;;;;;;;6121124;23;20017;-80
2023/04/12 00:45:46;;;;;;;4.32;1.70;;;;;;;;;;6145980;23;20025;-79
2023/04/12 00:48:11;;;;;;;3.55;1.70;;;;;;;;;;6145705;23;20018;-80
2023/04/12 00:50:40;;;;;;;3.60;1.52;;;;;;;;;;6095118;23;20092;-80
2023/04/12 00:53:08;;;;;;;4.45;1.60;;;;;;;;;;6120830;23;20037;-79
2023/04/12 00:55:34;;;;;;;4.30;1.60;;;;;;;;;;6119742;23;20096;-79
2023/04/12 00:58:00;;;;;;;3.95;1.40;;;;;;;;;;6146941;23;20412;-80
2023/04/12 01:00:26;;;;;;;4.80;1.50;;;;;;;;;;6094686;23;20021;-80
2023/04/12 01:02:52;;;;;;;3.58;1.60;;;;;;;;;;6120856;23;20013;-80
2023/04/12 01:05:22;;;;;;;3.47;1.58;;;;;;;;;;6145888;23;20013;-80
2023/04/12 01:08:03;;;;;;;3.80;1.70;;;;;;;;;;6120975;23;20142;-80
2023/04/12 01:11:07;;;;;;;4.50;2.22;;;;;;;;;;6119347;23;20145;-80
2023/04/12 01:13:44;;;;;;;5.80;2.75;;;;;;;;;;6141596;23;20277;-80
2023/04/12 01:17:02;;;;;;;5.63;2.60;;;;;;;;;;6119997;23;20017;-80
2023/04/12 01:19:32;;;;;;;4.47;2.40;;;;;;;;;;6071445;23;20049;-80
2023/04/12 01:22:10;;;;;;;6.90;2.42;;;;;;;;;;6145602;23;20021;-80
2023/04/12 01:25:08;;;;;;;7.85;2.60;;;;;;;;;;6145594;23;20021;-79
2023/04/12 01:27:40;;;;;;;5.30;2.72;;;;;;;;;;6018711;23;20100;-79
2023/04/12 01:30:07;;;;;;;5.50;2.33;;;;;;;;;;6119586;23;20086;-80
2023/04/12 01:32:34;;;;;;;4.75;2.50;;;;;;;;;;6119329;23;20447;-79
2023/04/12 01:35:01;;;;;;;7.63;2.28;;;;;;;;;;6119764;23;20305;-79
2023/04/12 01:37:27;;;;;;;5.90;2.58;;;;;;;;;;6118489;23;20329;-79
2023/04/12 01:39:53;;;;;;;8.10;2.70;;;;;;;;;;6119138;23;20139;-79
2023/04/12 01:42:19;;;;;;;4.10;2.30;;;;;;;;;;6119719;23;20120;-78
2023/04/12 01:44:45;;;;;;;4.63;2.50;;;;;;;;;;6145184;23;20455;-79
2023/04/12 01:47:10;;;;;;;4.72;2.47;;;;;;;;;;6094392;23;20014;-79
2023/04/12 01:49:48;;;;;;;3.85;2.10;;;;;;;;;;6095155;23;20044;-79
2023/04/12 01:52:20;;;;;;;5.53;2.40;;;;;;;;;;6118338;23;20013;-79
2023/04/12 01:54:48;;;;;;;3.50;1.90;;;;;;;;;;6146286;23;20021;-79
2023/04/12 01:57:14;;;;;;;4.03;2.08;;;;;;;;;;6144835;23;20335;-79
2023/04/12 01:59:43;;;;;;;4.20;2.13;;;;;;;;;;6120161;23;20017;-79
2023/04/12 02:02:09;;;;;;;3.92;2.08;;;;;;;;;;6119398;23;20088;-79
2023/04/12 02:04:36;;;;;;;6.78;2.08;;;;;;;;;;6120006;23;20455;-79
2023/04/12 02:07:02;;;;;;;6.05;2.10;;;;;;;;;;6094370;23;20105;-79
2023/04/12 02:09:27;;;;;;;4.20;1.90;;;;;;;;;;6119097;23;20092;-79
2023/04/12 02:11:53;;;;;;;6.05;1.83;;;;;;;;;;6144767;23;20728;-79
2023/04/12 02:14:18;;;;;;;3.80;1.58;;;;;;;;;;6146595;23;20126;-79
2023/04/12 02:16:44;;;;;;;5.15;2.20;;;;;;;;;;6117908;23;20079;-80
2023/04/12 02:19:11;;;;;;;4.28;2.15;;;;;;;;;;6145580;23;20022;-80
2023/04/12 02:21:43;;;;;;;6.40;2.00;;;;;;;;;;6144517;23;20017;-79
2023/04/12 02:24:10;;;;;;;5.65;2.00;;;;;;;;;;6094706;23;20021;-80
2023/04/12 02:26:36;;;;;;;4.85;1.90;;;;;;;;;;6118956;23;20017;-79
2023/04/12 02:29:02;;;;;;;3.83;1.52;;;;;;;;;;6119188;23;20363;-79
2023/04/12 02:31:27;;;;;;;5.50;1.85;;;;;;;;;;6094250;23;20024;-79
2023/04/12 02:33:52;;;;;;;4.45;2.13;;;;;;;;;;6118825;23;20025;-80
2023/04/12 02:36:18;;;;;;;6.47;2.22;;;;;;;;;;6095010;23;20044;-79
2023/04/12 02:38:43;;;;;;;3.85;2.05;;;;;;;;;;6145541;23;20057;-79
2023/04/12 02:41:09;;;;;;;6.90;1.70;;;;;;;;;;6117659;23;20020;-79
2023/04/12 02:43:34;;;;;;;7.55;2.40;;;;;;;;;;6139228;23;20494;-78
2023/04/12 02:45:59;;;;;;;6.13;2.00;;;;;;;;;;6089406;23;20024;-78
2023/04/12 02:48:25;;;;;;;4.85;1.88;;;;;;;;;;6115430;23;20014;-79
2023/04/12 02:50:50;;;;;;;6.15;2.60;;;;;;;;;;6065806;23;20026;-79
2023/04/12 02:53:16;;;;;;;4.28;2.00;;;;;;;;;;6115898;23;20022;-79
2023/04/12 02:55:41;;;;;;;6.22;1.80;;;;;;;;;;6089004;23;20524;-79
2023/04/12 02:58:06;;;;;;;4.95;1.88;;;;;;;;;;6089946;23;20021;-79
2023/04/12 03:00:32;;;;;;;7.20;2.25;;;;;;;;;;6088133;23;20014;-78
2023/04/12 03:03:00;;;;;;;5.90;1.90;;;;;;;;;;6116494;23;20026;-79
2023/04/12 03:05:26;;;;;;;;;;;;;;;;;;6115660;23;20014;-79
2023/04/12 03:07:51;;;;;;;3.50;1.92;;;;;;;;;;6115553;23;19941;-79
2023/04/12 03:10:17;;;;;;;4.25;2.05;;;;;;;;;;6115169;23;20018;-80
2023/04/12 03:12:42;;;;;;;4.60;1.88;;;;;;;;;;6089130;23;20022;-79
2023/04/12 03:15:08;;;;;;;8.63;2.47;;;;;;;;;;6089342;23;20036;-79
2023/04/12 03:17:33;;;;;;;5.85;1.85;;;;;;;;;;6089974;23;20029;-80
2023/04/12 03:20:08;;;;;;;4.20;2.20;;;;;;;;;;6089529;23;20041;-80
2023/04/12 03:22:35;;;;;;;5.57;2.45;;;;;;;;;;6089795;23;20013;-79
2023/04/12 03:25:01;;;;;;;5.10;2.03;;;;;;;;;;6065871;23;20097;-79
2023/04/12 03:27:27;;;;;;;3.78;1.70;;;;;;;;;;6088680;23;20014;-79
2023/04/12 03:29:52;;;;;;;5.07;1.90;;;;;;;;;;6091037;23;20093;-79
2023/04/12 03:32:17;;;;;;;4.35;2.10;;;;;;;;;;6088713;23;20022;-79
2023/04/12 03:34:44;;;;;;;4.10;2.08;;;;;;;;;;6065950;23;20028;-80
2023/04/12 03:37:09;;;;;;;3.92;1.88;;;;;;;;;;6090675;23;20037;-79
2023/04/12 03:39:35;;;;;;;9.10;2.28;;;;;;;;;;6092048;23;20014;-80
2023/04/12 03:42:00;;;;;;;7.20;2.42;;;;;;;;;;6090737;23;20018;-79
2023/04/12 03:44:26;;;;;;;4.53;2.10;;;;;;;;;;6107176;23;20022;-78
2023/04/12 03:46:51;;;;;;;5.20;2.00;;;;;;;;;;6121403;23;20010;-80
2023/04/12 03:49:17;;;;;;;4.07;2.10;;;;;;;;;;6096711;23;20068;-79
2023/04/12 03:51:42;;;;;;;6.60;2.25;;;;;;;;;;6095850;23;20022;-80
2023/04/12 03:54:14;;;;;;;7.75;2.67;;;;;;;;;;6121323;23;20364;-80
2023/04/12 03:56:39;;;;;;;5.32;2.40;;;;;;;;;;6121137;23;20013;-80
2023/04/12 03:59:06;;;;;;;6.35;2.35;;;;;;;;;;6096445;23;20033;-80
2023/04/12 04:01:32;;;;;;;7.05;2.22;;;;;;;;;;6120209;23;20009;-80
2023/04/12 04:03:58;;;;;;;7.90;2.58;;;;;;;;;;6120375;23;20329;-80
2023/04/12 04:06:23;;;;;;;4.43;2.40;;;;;;;;;;6119669;23;20112;-80
2023/04/12 04:08:49;;;;;;;6.20;2.78;;;;;;;;;;6120713;23;20519;-80
2023/04/12 04:11:15;;;;;;;5.80;2.40;;;;;;;;;;6120652;23;20092;-82
2023/04/12 04:13:40;;;;;;;5.90;2.28;;;;;;;;;;6121253;23;20021;-81
2023/04/12 04:16:08;;;;;;;6.63;2.38;;;;;;;;;;6119626;23;20499;-84
2023/04/12 04:18:34;;;;;;;4.57;2.40;;;;;;;;;;6120613;23;20017;-83
2023/04/12 04:21:00;;;;;;;4.07;2.13;;;;;;;;;;6119369;23;20116;-82
2023/04/12 04:23:27;;;;;;;4.97;2.42;;;;;;;;;;6096130;23;20041;-81
2023/04/12 04:25:53;;;;;;;;;;;;;;;;;;6121559;23;20013;-81
2023/04/12 04:28:18;;;;;;;4.32;2.20;;;;;;;;;;6120696;23;19919;-81
2023/04/12 04:30:45;;;;;;;5.05;2.42;;;;;;;;;;6146010;23;20466;-81
2023/04/12 04:33:14;;;;;;;5.57;2.75;;;;;;;;;;6146676;23;20466;-82
2023/04/12 04:35:41;;;;;;;5.20;2.55;;;;;;;;;;6118845;23;20025;-82
2023/04/12 04:38:06;;;;;;;7.05;2.80;;;;;;;;;;6120568;23;20565;-80
2023/04/12 04:40:32;;;;;;;6.82;2.88;;;;;;;;;;6119095;23;20021;-82
2023/04/12 04:42:58;;;;;;;5.43;2.78;;;;;;;;;;6146329;23;20455;-82
2023/04/12 04:45:27;;;;;;;6.97;2.75;;;;;;;;;;6119707;23;20725;-82
2023/04/12 04:47:53;;;;;;;6.28;2.83;;;;;;;;;;6121633;23;20014;-82
2023/04/12 04:50:20;;;;;;;7.00;3.13;;;;;;;;;;6146469;23;20013;-82
2023/04/12 04:52:47;;;;;;;9.48;3.28;;;;;;;;;;6119902;23;20080;-82
2023/04/12 04:55:12;;;;;;;8.30;2.85;;;;;;;;;;6095613;23;20430;-82
2023/04/12 04:57:38;;;;;;;4.93;2.78;;;;;;;;;;6095596;23;20017;-83
2023/04/12 05:00:09;;;;;;;7.03;3.17;;;;;;;;;;6120198;23;20028;-82
2023/04/12 05:02:35;;;;;;;5.15;2.60;;;;;;;;;;6096661;23;20121;-83
2023/04/12 05:05:01;;;;;;;6.13;2.85;;;;;;;;;;6119671;23;20032;-86
2023/04/12 05:07:26;;;;;;;5.68;2.47;;;;;;;;;;6119652;23;20447;-82
2023/04/12 05:09:52;;;;;;;7.07;2.83;;;;;;;;;;6120650;23;20050;-82
2023/04/12 05:12:17;;;;;;;6.45;2.83;;;;;;;;;;6119498;23;20017;-83
2023/04/12 05:14:43;;;;;;;7.95;2.88;;;;;;;;;;6095903;23;20092;-83
2023/04/12 05:17:08;;;;;;;6.20;2.67;;;;;;;;;;6118546;23;20333;-83
2023/04/12 05:19:33;;;;;;;5.55;2.80;;;;;;;;;;6120168;23;20017;-83
2023/04/12 05:21:59;;;;;;;6.55;3.08;;;;;;;;;;6119194;23;20457;-82
2023/04/12 05:24:24;;;;;;;6.43;2.75;;;;;;;;;;6146090;23;20466;-83
2023/04/12 05:26:49;;;;;;;7.10;2.97;;;;;;;;;;6119732;23;20017;-83
2023/04/12 05:29:15;;;;;;;7.60;3.20;;;;;;;;;;6120484;23;20381;-82
2023/04/12 05:31:40;;;;;;;5.15;2.40;;;;;;;;;;6118461;23;20044;-83
2023/04/12 05:34:06;;;;;;;7.90;2.80;;;;;;;;;;6095728;23;20033;-83
2023/04/12 05:36:32;;;;;;;7.47;2.67;;;;;;;;;;6144963;23;20049;-82
2023/04/12 05:38:57;;;;;;;7.47;3.17;;;;;;;;;;6119629;23;20072;-83
2023/04/12 05:41:23;;;;;;;7.15;2.60;;;;;;;;;;6095377;23;20087;-82
2023/04/12 05:43:48;;;;;;;5.32;2.63;;;;;;;;;;6119848;23;20028;-83
2023/04/12 05:46:14;;;;;;;5.88;2.50;;;;;;;;;;6118755;23;20061;-82
2023/04/12 05:48:39;;;;;;;7.03;2.60;;;;;;;;;;6095107;23;20010;-82
2023/04/12 05:51:05;;;;;;;4.30;2.45;;;;;;;;;;6094851;23;20014;-83
2023/04/12 05:53:31;;;;;;;4.72;2.40;;;;;;;;;;6145384;23;20025;-82
2023/04/12 05:55:57;;;;;;;3.85;1.85;;;;;;;;;;6119511;23;20029;-82
2023/04/12 05:58:23;;;;;;;6.97;2.00;;;;;;;;;;6146092;23;20025;-83
2023/04/12 06:00:48;;;;;;;3.97;2.10;;;;;;;;;;6145748;23;20447;-83
2023/04/12 06:03:14;;;;;;;5.63;2.42;;;;;;;;;;6119239;23;20041;-83
2023/04/12 06:05:39;;;;;;;3.90;2.00;;;;;;;;;;6119356;23;20092;-81
2023/04/12 06:08:05;;;;;;;4.78;2.40;;;;;;;;;;6118698;23;20017;-81
2023/04/12 06:10:30;;;;;;;6.00;2.10;;;;;;;;;;6145076;23;20064;-82
2023/04/12 06:12:56;;;;;;;5.47;2.38;;;;;;;;;;6120226;23;20017;-83
2023/04/12 06:15:25;;;;;;;4.68;2.10;;;;;;;;;;6145228;23;20318;-82
2023/04/12 06:17:51;;;;;;;4.32;1.95;;;;;;;;;;6120122;23;20025;-83
2023/04/12 06:20:17;;;;;;;4.10;1.67;;;;;;;;;;6117960;23;20013;-83
2023/04/12 06:22:42;;;;;;;4.00;1.90;;;;;;;;;;6123003;23;20009;-82
2023/04/12 06:25:07;;;;;;;6.75;2.53;;;;;;;;;;6119336;23;20087;-83
2023/04/12 06:27:33;;;;;;;9.52;2.08;;;;;;;;;;6118614;23;20009;-82
2023/04/12 06:29:58;;;;;;;3.75;1.60;;;;;;;;;;6145567;23;20022;-83
2023/04/12 06:32:24;;;;;;;5.43;2.45;;;;;;;;;;6118077;23;20017;-83
2023/04/12 06:34:49;;;;;;;3.20;1.52;;;;;;;;;;6146489;23;20016;-82
2023/04/12 06:37:15;;;;;;;3.58;1.58;;;;;;;;;;6118584;23;20017;-82
2023/04/12 06:39:40;;;;;;;3.58;1.70;;;;;;;;;;6145082;23;20403;-81
2023/04/12 06:42:05;;;;;;;3.72;1.50;;;;;;;;;;6144788;23;20018;-82
2023/04/12 06:44:32;;;;;;;3.95;1.48;;;;;;;;;;6095061;23;20021;-82
2023/04/12 06:46:58;;;;;;;4.35;1.58;;;;;;;;;;6143941;23;20025;-82
2023/04/12 06:49:24;;;;;;;4.80;2.05;;;;;;;;;;6094924;23;20333;-83
2023/04/12 06:51:49;;;;;;;5.18;1.52;;;;;;;;;;6144905;23;20021;-82
2023/04/12 06:54:15;;;;;;;4.00;1.60;;;;;;;;;;6094081;23;20352;-82
2023/04/12 06:56:40;;;;;;;4.00;1.48;;;;;;;;;;6119169;23;20013;-82
2023/04/12 06:59:06;;;;;;;2.63;1.20;;;;;;;;;;6118400;23;20028;-83
2023/04/12 07:01:31;;;;;;;4.35;1.50;;;;;;;;;;6094409;23;20040;-82
2023/04/12 07:03:57;;;;;;;6.50;1.88;;;;;;;;;;6119081;23;20033;-81
2023/04/12 07:06:22;;;;;;;3.05;1.35;;;;;;;;;;6119311;23;20348;-82
2023/04/12 07:08:48;;;;;;;3.90;1.40;;;;;;;;;;6094418;23;20013;-82
2023/04/12 07:11:14;;;;;;;5.75;1.50;;;;;;;;;;6119323;23;20036;-82
2023/04/12 07:13:39;;;;;;;4.72;1.40;;;;;;;;;;6094753;23;20005;-82
2023/04/12 07:16:05;;;;;;;3.47;1.70;;;;;;;;;;6087324;23;20018;-81
2023/04/12 07:18:30;;;;;;;3.58;1.40;;;;;;;;;;6118566;23;20026;-82
2023/04/12 07:20:56;;;;;;;3.63;1.30;;;;;;;;;;6094445;23;20025;-82
2023/04/12 07:23:22;;;;;;;3.97;1.10;;;;;;;;;;6145971;23;20052;-83
2023/04/12 07:25:48;;;;;;;3.60;1.30;;;;;;;;;;6143610;23;20017;-84
2023/04/12 07:28:13;;;;;;;3.97;1.63;;;;;;;;;;6119202;23;20089;-84
2023/04/12 07:30:59;;;;;;;7.10;1.70;;;;;;;;;;6144159;23;20105;-83
2023/04/12 07:33:25;;;;;;;6.07;1.67;;;;;;;;;;6025828;23;20461;-82
2023/04/12 07:35:50;;;;;;;4.15;1.40;;;;;;;;;;6002323;23;20019;-82
2023/04/12 07:38:15;;;;;;;3.95;1.50;;;;;;;;;;5978398;23;20133;-82
2023/04/12 07:40:41;;;;;;;2.90;1.02;;;;;;;;;;6025394;23;20038;-83
2023/04/12 07:43:06;;;;;;;4.43;1.38;;;;;;;;;;6025112;23;20724;-83
2023/04/12 07:45:31;;;;;;;3.72;1.30;;;;;;;;;;6001321;23;20091;-82
2023/04/12 07:47:57;;;;;;;2.80;1.20;;;;;;;;;;6024845;23;20043;-80
2023/04/12 07:50:22;;;;;;;5.05;1.50;;;;;;;;;;6026238;23;20157;-81
2023/04/12 07:52:48;;;;;;;4.97;1.45;;;;;;;;;;6025325;23;20070;-81
2023/04/12 07:55:13;;;;;;;5.10;1.48;;;;;;;;;;6011156;23;20020;-82
2023/04/12 07:57:38;;;;;;;2.42;1.10;;;;;;;;;;6025722;23;20027;-82
2023/04/12 08:00:08;;;;;;;2.30;1.00;;;;;;;;;;6025984;23;20023;-82
2023/04/12 08:02:33;;;;;;;3.65;1.10;;;;;;;;;;6024546;23;20343;-82
2023/04/12 08:04:58;;;;;;;4.78;1.20;;;;;;;;;;6025658;23;20470;-82
2023/04/12 08:07:25;;;;;;;3.08;1.02;;;;;;;;;;6001033;23;20026;-80
2023/04/12 08:09:51;;;;;;;4.18;0.88;;;;;;;;;;6034669;23;20022;-81
2023/04/12 08:12:16;;;;;;;2.30;0.80;;;;;;;;;;6118016;23;20020;-81
2023/04/12 08:14:42;;;;;;;3.80;1.00;;;;;;;;;;6118435;23;20021;-81
2023/04/12 08:17:07;;;;;;;4.38;1.05;;;;;;;;;;6118491;23;20025;-81
2023/04/12 08:19:33;;;;;;;2.50;0.82;;;;;;;;;;6119074;23;20361;-81
2023/04/12 08:21:59;;;;;;;3.10;0.70;;;;;;;;;;6119455;23;20367;-81
2023/04/12 08:24:25;;;;;;;2.55;0.80;;;;;;;;;;6146953;23;20020;-81
2023/04/12 08:26:50;;;;;;;4.15;0.88;;;;;;;;;;6120266;23;20657;-81
2023/04/12 08:29:16;;;;;;;2.50;0.65;;;;;;;;;;6147525;23;20009;-80
2023/04/12 08:31:42;;;;;;;2.15;0.73;;;;;;;;;;6119410;23;20017;-80
2023/04/12 08:34:07;;;;;;;4.28;0.90;;;;;;;;;;6120172;23;20021;-81
2023/04/12 08:36:32;;;;;;;3.92;0.90;;;;;;;;;;6119873;23;20052;-81
2023/04/12 08:38:59;;;;;;;4.60;1.05;;;;;;;;;;6120141;23;20459;-81
2023/04/12 08:41:25;;;;;;;8.88;0.85;;;;;;;;;;6095112;23;20013;-80
2023/04/12 08:44:11;;;;;;;3.03;0.57;;;;;;;;;;6086939;23;20084;-81
2023/04/12 08:46:36;;;;;;;2.45;0.50;;;;;;;;;;5947018;24;20475;-81
2023/04/12 08:49:02;;;;;;;4.97;1.05;;;;;;;;;;5971230;24;20028;-81
2023/04/12 08:51:28;;;;;;;2.35;0.73;;;;;;;;;;5946729;24;20024;-79
2023/04/12 08:53:53;;;;;;;1.92;0.50;;;;;;;;;;5971445;24;20024;-82
2023/04/12 08:56:19;;;;;;;3.28;0.60;;;;;;;;;;5970311;24;20031;-82
2023/04/12 08:58:47;;;;;;;3.65;1.25;;;;;;;;;;5970079;24;20028;-84
2023/04/12 09:01:16;;;;;;;7.47;1.00;;;;;;;;;;5947472;24;20135;-85
2023/04/12 09:03:43;;;;;;;7.00;1.55;;;;;;;;;;5969731;24;20514;-85
2023/04/12 09:06:09;;;;;;;3.53;0.80;;;;;;;;;;5947259;24;20625;-84
2023/04/12 09:08:35;;;;;;;2.70;0.68;;;;;;;;;;5969299;24;20012;-83
2023/04/12 09:11:01;;;;;;;3.85;1.02;;;;;;;;;;5970251;24;20754;-83
2023/04/12 09:13:34;;;;;;;2.55;0.63;;;;;;;;;;5924193;24;20027;-84
2023/04/12 09:16:00;;;;;;;8.10;1.13;;;;;;;;;;5970287;24;20024;-84
2023/04/12 09:18:26;;;;;;;3.30;0.70;;;;;;;;;;5947460;24;20423;-83
2023/04/12 09:21:08;;;;;;;3.10;0.70;;;;;;;;;;5946978;24;20080;-82
2023/04/12 09:23:36;;;;;;;4.07;0.70;;;;;;;;;;6038839;23;20016;-83
2023/04/12 09:26:02;;;;;;;6.28;1.25;;;;;;;;;;6114921;23;20017;-83
2023/04/12 09:28:29;;;;;;;2.83;0.60;;;;;;;;;;6090888;23;20017;-82
2023/04/12 09:30:56;;;;;;;4.00;0.63;;;;;;;;;;6066150;23;20042;-83
2023/04/12 09:33:31;;;;;;;2.65;0.70;;;;;;;;;;6090800;23;20040;-82
2023/04/12 09:36:00;;;;;;;3.17;0.70;;;;;;;;;;6066194;23;20029;-83
2023/04/12 09:38:25;;;;;;;3.30;0.70;;;;;;;;;;6090476;23;20084;-83
2023/04/12 09:40:51;;;;;;;1.60;0.52;;;;;;;;;;6090747;23;20076;-83
2023/04/12 09:43:16;;;;;;;4.15;1.10;;;;;;;;;;6093158;23;20116;-83
2023/04/12 09:45:41;;;;;;;4.68;0.80;;;;;;;;;;6145830;23;20068;-84
2023/04/12 09:48:17;;;;;;;3.80;0.77;;;;;;;;;;6146104;23;20025;-83
2023/04/12 09:50:44;;;;;;;2.90;0.57;;;;;;;;;;6094217;23;20020;-81
2023/04/12 09:53:16;;;;;;;3.45;0.88;;;;;;;;;;6119627;23;20014;-82
2023/04/12 09:55:42;;;;;;;3.47;0.70;;;;;;;;;;6118659;23;20013;-83
2023/04/12 09:58:07;;;;;;;2.88;0.70;;;;;;;;;;6094925;23;20029;-83
2023/04/12 10:00:33;;;;;;;3.67;0.80;;;;;;;;;;6118860;23;20047;-82
2023/04/12 10:02:59;;;;;;;3.90;0.93;;;;;;;;;;6118513;23;20028;-83
2023/04/12 10:05:25;;;;;;;3.63;0.93;;;;;;;;;;6094577;23;20459;-82
2023/04/12 10:07:51;;;;;;;2.55;0.90;;;;;;;;;;6119139;23;20017;-81
2023/04/12 10:10:17;;;;;;;4.32;1.00;;;;;;;;;;6145174;23;20474;-83
2023/04/12 10:12:45;;;;;;;3.53;0.90;;;;;;;;;;6145725;23;20076;-82
2023/04/12 10:15:12;;;;;;;3.38;0.82;;;;;;;;;;6119812;23;20760;-81
2023/04/12 10:18:03;;;;;;;2.60;0.90;;;;;;;;;;6118143;23;20064;-81
2023/04/12 10:20:49;;;;;;;3.95;1.08;;;;;;;;;;6110477;23;20041;-82
2023/04/12 10:23:15;;;;;;;3.25;0.88;;;;;;;;;;6025848;23;20027;-82
2023/04/12 10:25:41;;;;;;;2.35;0.80;;;;;;;;;;6049883;23;20050;-80
2023/04/12 10:28:20;;;;;;;2.50;0.60;;;;;;;;;;6049554;23;20413;-81
2023/04/12 10:30:50;;;;;;;2.35;0.85;;;;;;;;;;6001777;23;20050;-82
2023/04/12 10:33:18;;;;;;;3.63;0.90;;;;;;;;;;6001891;23;20451;-82
2023/04/12 10:35:46;;;;;;;6.18;0.80;;;;;;;;;;6001006;23;20026;-82
2023/04/12 10:38:12;;;;;;;2.50;0.70;;;;;;;;;;6002415;23;20034;-81
2023/04/12 10:40:37;;;;;;;3.03;0.80;;;;;;;;;;6023333;23;20705;-82
2023/04/12 10:43:21;;;;;;;2.83;0.80;;;;;;;;;;6024710;23;20373;-81
2023/04/12 10:45:48;;;;;;;2.47;0.70;;;;;;;;;;6023422;23;20098;-83
2023/04/12 10:48:36;;;;;;;4.07;1.00;;;;;;;;;;5977386;23;20301;-81
2023/04/12 10:51:12;;;;;;;3.22;1.00;;;;;;;;;;6024424;23;20045;-82
2023/04/12 10:53:38;;;;;;;4.43;0.70;;;;;;;;;;6008023;23;20034;-82
2023/04/12 10:56:32;;;;;;;4.05;0.85;;;;;;;;;;6004393;23;20204;-83
2023/04/12 10:59:01;;;;;;;3.38;0.70;;;;;;;;;;6024373;23;20057;-83
2023/04/12 11:01:27;;;;;;;3.38;0.70;;;;;;;;;;6135530;23;20481;-83
2023/04/12 11:04:11;;;;;;;3.83;0.98;;;;;;;;;;6088145;23;20018;-82
2023/04/12 11:06:52;;;;;;;3.10;0.60;;;;;;;;;;6112643;23;20017;-83
2023/04/12 11:09:24;;;;;;;3.28;0.80;;;;;;;;;;6113886;23;20022;-82
2023/04/12 11:12:11;;;;;;;3.10;0.70;;;;;;;;;;6113606;23;20105;-81
2023/04/12 11:14:45;;;;;;;3.05;0.75;;;;;;;;;;6114016;23;20045;-76
2023/04/12 11:17:14;;;;;;;3.00;0.95;;;;;;;;;;6112962;23;20117;-82
2023/04/12 11:19:44;;;;;;;2.63;0.75;;;;;;;;;;6087856;23;20073;-83
2023/04/12 11:22:11;;;;;;;4.97;0.70;;;;;;;;;;6112063;23;20028;-83
2023/04/12 11:24:38;;;;;;;3.83;0.70;;;;;;;;;;6114135;23;20491;-80
2023/04/12 11:27:03;;;;;;;3.55;0.60;;;;;;;;;;6088221;23;20042;-82
2023/04/12 11:29:31;;;;;;;3.65;0.80;;;;;;;;;;6112416;23;20025;-82
2023/04/12 11:31:57;;;;;;;2.53;0.70;;;;;;;;;;6114163;23;20053;-81
2023/04/12 11:34:22;;;;;;;3.47;0.70;;;;;;;;;;6065192;23;20038;-80
2023/04/12 11:36:52;;;;;;;3.25;0.47;;;;;;;;;;6087347;23;20026;-81
2023/04/12 11:39:18;;;;;;;3.78;0.98;;;;;;;;;;6113994;23;20448;-81
2023/04/12 11:41:46;;;;;;;2.53;0.68;;;;;;;;;;6112857;23;20452;-80
2023/04/12 11:44:17;;;;;;;;;;;;;;;;;;6102202;23;20088;-79
2023/04/12 11:46:43;;;;;;;4.93;1.00;;;;;;;;;;6116494;23;19913;-80
2023/04/12 11:49:09;;;;;;;1.92;0.63;;;;;;;;;;6143951;23;20083;-80
2023/04/12 11:51:35;;;;;;;2.33;0.80;;;;;;;;;;6117827;23;20806;-80
2023/04/12 11:54:00;;;;;;;2.65;0.65;;;;;;;;;;6117520;23;20490;-80
2023/04/12 11:56:27;;;;;;;2.95;0.70;;;;;;;;;;6117641;23;20017;-80
2023/04/12 11:58:53;;;;;;;3.72;0.80;;;;;;;;;;6146310;23;20044;-81
2023/04/12 12:01:22;;;;;;;4.43;0.85;;;;;;;;;;6094165;23;20014;-79
2023/04/12 12:03:48;;;;;;;2.50;0.75;;;;;;;;;;6119634;23;20450;-80
2023/04/12 12:06:14;;;;;;;1.88;0.60;;;;;;;;;;6118460;23;20018;-80
2023/04/12 12:08:39;;;;;;;2.05;0.60;;;;;;;;;;6120614;23;20036;-81
2023/04/12 12:11:05;;;;;;;2.03;0.57;;;;;;;;;;6095391;23;20029;-80
2023/04/12 12:13:47;;;;;;;2.08;0.68;;;;;;;;;;6145461;23;20024;-79
2023/04/12 12:16:13;;;;;;;2.85;0.80;;;;;;;;;;6095224;23;20474;-79
2023/04/12 12:18:42;;;;;;;2.65;0.73;;;;;;;;;;6145724;23;20013;-80
2023/04/12 12:21:08;;;;;;;2.90;0.90;;;;;;;;;;6146212;23;20017;-81
2023/04/12 12:23:34;;;;;;;2.05;0.70;;;;;;;;;;6119754;23;20017;-79
2023/04/12 12:26:02;;;;;;;2.20;0.57;;;;;;;;;;6119621;23;20105;-80
2023/04/12 12:28:27;;;;;;;;;;;;;;;;;;6121242;23;20041;-79
2023/04/12 12:30:56;;;;;;;2.93;0.70;;;;;;;;;;6120018;23;19913;-81
2023/04/12 12:33:22;;;;;;;5.78;0.90;;;;;;;;;;6146389;23;20352;-81
2023/04/12 12:35:55;;;;;;;2.55;0.63;;;;;;;;;;6118610;23;20440;-82
2023/04/12 12:38:20;;;;;;;1.75;0.60;;;;;;;;;;6095466;23;20447;-82
2023/04/12 12:40:45;;;;;;;2.13;0.77;;;;;;;;;;6119541;23;20021;-82
2023/04/12 12:43:17;;;;;;;1.92;0.47;;;;;;;;;;6120501;23;20013;-80
2023/04/12 12:45:42;;;;;;;2.65;0.60;;;;;;;;;;6119323;23;20081;-81
2023/04/12 12:48:08;;;;;;;2.42;0.60;;;;;;;;;;6120265;23;20038;-82
2023/04/12 12:50:35;;;;;;;2.67;0.70;;;;;;;;;;6120555;23;20020;-80
2023/04/12 12:53:01;;;;;;;1.60;0.53;;;;;;;;;;6120703;23;20029;-80
2023/04/12 12:55:27;;;;;;;2.67;0.60;;;;;;;;;;6118808;23;20009;-80
2023/04/12 12:57:55;;;;;;;4.00;0.98;;;;;;;;;;6120981;23;20021;-82
2023/04/12 13:00:23;;;;;;;5.20;0.90;;;;;;;;;;6145756;23;20108;-81
2023/04/12 13:02:52;;;;;;;3.22;0.55;;;;;;;;;;6119201;23;20009;-80
2023/04/12 13:05:18;;;;;;;3.22;0.60;;;;;;;;;;6120266;23;20660;-81
2023/04/12 13:07:44;;;;;;;2.30;0.68;;;;;;;;;;6120113;23;20616;-81
2023/04/12 13:10:30;;;;;;;2.40;0.70;;;;;;;;;;6146703;23;20022;-80
2023/04/12 13:12:55;;;;;;;4.35;0.70;;;;;;;;;;6055252;23;20069;-81
2023/04/12 13:15:22;;;;;;;2.80;0.60;;;;;;;;;;6056244;23;20022;-80
2023/04/12 13:17:47;;;;;;;2.88;0.68;;;;;;;;;;6054066;23;20497;-81
2023/04/12 13:20:12;;;;;;;4.35;0.93;;;;;;;;;;6031851;23;20025;-82
2023/04/12 13:22:38;;;;;;;2.55;0.70;;;;;;;;;;6075034;23;20055;-80
2023/04/12 13:25:03;;;;;;;2.03;0.47;;;;;;;;;;6055619;23;20449;-81
2023/04/12 13:27:29;;;;;;;2.30;0.70;;;;;;;;;;6030244;23;20414;-82
2023/04/12 13:29:54;;;;;;;2.17;0.60;;;;;;;;;;6055488;23;20038;-82
2023/04/12 13:32:20;;;;;;;3.83;0.90;;;;;;;;;;6055327;23;20041;-83
2023/04/12 13:34:45;;;;;;;3.67;0.90;;;;;;;;;;6055764;23;20023;-82
2023/04/12 13:37:10;;;;;;;2.63;0.70;;;;;;;;;;6054685;23;20015;-82
2023/04/12 13:39:38;;;;;;;3.13;0.57;;;;;;;;;;6056055;23;20027;-81
2023/04/12 13:42:04;;;;;;;3.47;0.73;;;;;;;;;;6053777;23;20023;-82
2023/04/12 13:44:30;;;;;;;2.88;0.95;;;;;;;;;;6055241;23;20101;-81
2023/04/12 13:46:55;;;;;;;3.72;0.85;;;;;;;;;;6054641;23;20137;-80
2023/04/12 13:49:21;;;;;;;4.38;0.82;;;;;;;;;;6075946;23;20020;-81
2023/04/12 13:51:46;;;;;;;3.40;0.70;;;;;;;;;;6145213;23;20487;-81
2023/04/12 13:54:14;;;;;;;4.32;0.85;;;;;;;;;;6146245;23;20018;-82
2023/04/12 13:56:39;;;;;;;;;;;;;;;;;;6119621;23;20013;-81
2023/04/12 13:59:04;;;;;;;3.00;0.82;;;;;;;;;;6145958;23;20015;-81
2023/04/12 14:01:30;;;;;;;3.80;0.77;;;;;;;;;;6118862;23;20532;-81
2023/04/12 14:03:55;;;;;;;1.98;0.60;;;;;;;;;;6119643;23;20384;-81
2023/04/12 14:06:21;;;;;;;2.05;0.63;;;;;;;;;;6145930;23;20096;-80
2023/04/12 14:08:46;;;;;;;2.80;0.95;;;;;;;;;;6145753;23;20013;-80
2023/04/12 14:11:12;;;;;;;3.20;0.82;;;;;;;;;;6145783;23;20512;-82
2023/04/12 14:13:37;;;;;;;3.42;0.70;;;;;;;;;;6145972;23;20371;-80
2023/04/12 14:16:04;;;;;;;2.83;0.60;;;;;;;;;;6119205;23;20407;-77
2023/04/12 14:18:29;;;;;;;2.70;0.77;;;;;;;;;;6095217;23;20021;-78
2023/04/12 14:20:56;;;;;;;2.08;0.68;;;;;;;;;;6145350;23;20610;-77
2023/04/12 14:23:23;;;;;;;4.47;0.80;;;;;;;;;;6119900;23;20410;-77
2023/04/12 14:25:49;;;;;;;3.42;0.90;;;;;;;;;;6145213;23;20035;-77
2023/04/12 14:28:15;;;;;;;1.73;0.63;;;;;;;;;;6118656;23;20017;-79
2023/04/12 14:30:41;;;;;;;3.92;0.90;;;;;;;;;;6145174;23;20347;-77
2023/04/12 14:33:07;;;;;;;2.00;0.65;;;;;;;;;;6119401;23;20033;-78
2023/04/12 14:35:32;;;;;;;4.32;0.90;;;;;;;;;;6118639;23;20017;-77
2023/04/12 14:37:57;;;;;;;2.88;0.63;;;;;;;;;;6118996;23;20032;-77
2023/04/12 14:40:23;;;;;;;1.85;0.70;;;;;;;;;;6144960;23;20013;-77
2023/04/12 14:42:48;;;;;;;2.95;0.80;;;;;;;;;;6145133;23;20009;-77
2023/04/12 14:45:16;;;;;;;3.28;0.80;;;;;;;;;;6144266;23;20029;-78
2023/04/12 14:47:41;;;;;;;2.60;0.80;;;;;;;;;;6144417;23;20025;-78